Terminal Aerodrome Forecast
Issued by NWS

Home | Current Version | Previous Version | Text Only | Print | Product List | Glossary Off
Versions: 1 2 3 4 5 6 7 8 9 10 11 12 13 14 15 16

794
FTUS41 KCLE 181504 AAA
TAFFDY
TAF AMD
KFDY 181504Z 1815/1912 12004KT P6SM SCT030
     FM182200 09009KT P6SM -RA OVC025
     FM190300 03012KT 4SM -RASN OVC007
     FM190600 01010G18KT 3SM -SN OVC005=

USA.gov is the U.S. government's official web portal to all federal, state and local government web resources and services.